Time;durP1;ratioP1;P1;durP2;ratioP2;P2;SDS_P1;SDS_P2;PMS_P1;PMS_P2;Temp;Humidity;BMP_temperature;BMP_pressure;BME280_temperature;BME280_humidity;BME280_pressure;Samples;Min_cycle;Max_cycle;Signal;HPM_P1;HPM_P2
2022/03/28 00:00:38;;;;;;;119.85;34.40;;;;;;;16.47;37.21;102663.00;5033432;28;20506;-72
2022/03/28 00:03:05;;;;;;;133.15;34.65;;;;;;;16.19;37.87;102658.59;5033563;28;20115;-73
2022/03/28 00:05:31;;;;;;;108.82;33.20;;;;;;;16.14;38.16;102658.69;5033170;28;20018;-73
2022/03/28 00:07:57;;;;;;;113.90;34.00;;;;;;;16.14;38.14;102650.41;5015679;28;20112;-72
2022/03/28 00:10:22;;;;;;;95.00;30.52;;;;;;;16.08;38.14;102652.44;5015350;28;20112;-72
2022/03/28 00:12:48;;;;;;;94.22;30.05;;;;;;;16.08;38.19;102652.44;5032879;28;20029;-72
2022/03/28 00:15:14;;;;;;;106.63;32.22;;;;;;;16.09;38.30;102646.63;5031899;28;20071;-73
2022/03/28 00:17:40;;;;;;;89.10;31.35;;;;;;;16.14;38.67;102639.38;5033298;28;20036;-83
2022/03/28 00:20:09;;;;;;;108.53;32.15;;;;;;;16.14;38.36;102639.38;5033324;28;20124;-87
2022/03/28 00:22:36;;;;;;;65.97;27.63;;;;;;;16.13;38.33;102640.50;5033313;28;20017;-72
2022/03/28 00:25:02;;;;;;;104.03;30.92;;;;;;;16.09;38.31;102632.84;5033407;28;20033;-72
2022/03/28 00:27:28;;;;;;;72.65;30.63;;;;;;;16.22;37.97;102635.91;5033074;28;20027;-72
2022/03/28 00:29:53;;;;;;;60.08;30.02;;;;;;;16.30;37.74;102622.22;5015449;28;20108;-87
2022/03/28 00:32:19;;;;;;;79.05;29.55;;;;;;;16.30;37.65;102621.41;5015348;28;20068;-86
2022/03/28 00:34:44;;;;;;;73.72;28.88;;;;;;;16.21;37.80;102621.31;5032522;28;20037;-72
2022/03/28 00:37:11;;;;;;;48.42;28.05;;;;;;;16.25;37.71;102630.63;5032676;28;20133;-72
2022/03/28 00:39:37;;;;;;;82.68;29.33;;;;;;;16.27;37.84;102619.28;5032645;28;20026;-72
2022/03/28 00:42:02;;;;;;;85.43;30.23;;;;;;;16.30;37.46;102616.72;5032522;28;20391;-89
2022/03/28 00:44:31;;;;;;;72.85;28.85;;;;;;;16.36;37.71;102609.16;5031935;28;20400;-74
2022/03/28 00:46:58;;;;;;;100.05;29.50;;;;;;;16.42;37.82;102609.88;5032532;28;20120;-77
2022/03/28 00:49:24;;;;;;;60.70;29.05;;;;;;;16.45;37.64;102607.31;5032830;28;20030;-73
2022/03/28 00:51:50;;;;;;;69.63;27.23;;;;;;;16.49;37.78;102602.00;5032828;28;20133;-72
2022/03/28 00:54:16;;;;;;;83.15;27.58;;;;;;;16.47;37.61;102602.28;5032698;28;20104;-72
2022/03/28 00:56:45;;;;;;;60.67;27.10;;;;;;;16.45;37.88;102595.47;5032443;28;20108;-88
2022/03/28 00:59:11;;;;;;;103.30;28.35;;;;;;;16.50;37.69;102601.69;5014752;28;20494;-72
2022/03/28 01:01:37;;;;;;;66.97;27.30;;;;;;;16.49;37.86;102597.31;5032593;28;20056;-86
2022/03/28 01:04:06;;;;;;;89.75;26.83;;;;;;;16.55;37.54;102595.22;5032226;28;20063;-73
2022/03/28 01:06:32;;;;;;;61.65;23.75;;;;;;;16.44;37.75;102588.31;5032723;28;20468;-87
2022/03/28 01:08:58;;;;;;;76.45;25.48;;;;;;;16.43;37.67;102587.50;5032759;28;20044;-78
2022/03/28 01:11:26;;;;;;;71.35;26.65;;;;;;;16.43;37.79;102587.50;5032107;28;20050;-72
2022/03/28 01:13:52;;;;;;;63.22;22.70;;;;;;;16.43;37.88;102593.00;5014651;28;20025;-73
2022/03/28 01:16:18;;;;;;;81.18;24.35;;;;;;;16.43;37.81;102593.00;5032128;28;20056;-79
2022/03/28 01:18:47;;;;;;;95.85;23.10;;;;;;;16.43;38.08;102584.75;5032110;28;20064;-72
2022/03/28 01:21:13;;;;;;;69.75;22.67;;;;;;;16.47;37.83;102582.16;5032131;28;20026;-87
2022/03/28 01:23:39;;;;;;;63.88;21.77;;;;;;;16.48;37.89;102583.81;5032084;28;20037;-72
2022/03/28 01:26:08;;;;;;;61.22;21.50;;;;;;;16.49;37.96;102582.69;5032181;28;20033;-72
2022/03/28 01:28:34;;;;;;;66.50;24.45;;;;;;;16.54;38.24;102583.38;5032323;28;20026;-87
2022/03/28 01:31:00;;;;;;;53.35;23.33;;;;;;;16.59;38.06;102580.53;5032156;28;20392;-73
2022/03/28 01:33:26;;;;;;;60.22;23.42;;;;;;;16.61;38.03;102572.75;5032878;28;20025;-72
2022/03/28 01:35:54;;;;;;;114.05;24.23;;;;;;;16.62;38.03;102574.41;5031893;28;20044;-72
2022/03/28 01:38:21;;;;;;;92.28;27.15;;;;;;;16.65;38.07;102568.25;5032314;28;20464;-72
2022/03/28 01:40:49;;;;;;;79.32;26.25;;;;;;;16.67;38.22;102569.88;5031864;28;20033;-72
2022/03/28 01:43:15;;;;;;;78.78;26.20;;;;;;;16.67;38.04;102569.88;5032159;28;20037;-72
2022/03/28 01:45:41;;;;;;;77.95;25.02;;;;;;;16.68;38.18;102560.47;5031904;28;20048;-73
2022/03/28 01:48:08;;;;;;;56.40;23.65;;;;;;;16.63;38.26;102562.22;5031837;28;20468;-72
2022/03/28 01:50:34;;;;;;;52.50;24.92;;;;;;;16.62;38.37;102552.31;5031829;28;20026;-72
2022/03/28 01:53:00;;;;;;;52.60;23.88;;;;;;;16.60;38.24;102562.03;5031745;28;20022;-72
2022/03/28 01:55:25;;;;;;;47.92;22.38;;;;;;;16.57;38.41;102552.44;5031881;28;20625;-72
2022/03/28 01:57:52;;;;;;;75.45;25.80;;;;;;;16.57;38.12;102546.09;5034752;28;20076;-72
2022/03/28 02:00:23;;;;;;;41.22;20.77;;;;;;;16.54;38.17;102550.28;5036149;28;20025;-72
2022/03/28 02:02:49;;;;;;;41.72;20.52;;;;;;;16.51;38.49;102555.59;5036423;28;20357;-73
2022/03/28 02:05:16;;;;;;;42.50;20.98;;;;;;;16.50;38.02;102545.69;5036234;28;20032;-84
2022/03/28 02:07:44;;;;;;;39.35;20.90;;;;;;;16.49;38.45;102535.78;5035670;28;20168;-72
2022/03/28 02:10:11;;;;;;;41.78;20.25;;;;;;;16.45;38.23;102534.75;5035343;28;20033;-72
2022/03/28 02:12:37;;;;;;;32.65;20.35;;;;;;;16.41;38.41;102531.81;5035447;28;20033;-72
2022/03/28 02:15:06;;;;;;;31.05;19.10;;;;;;;16.39;38.37;102536.81;5035705;28;20129;-73
2022/03/28 02:17:33;;;;;;;27.38;19.50;;;;;;;16.38;38.40;102515.88;5036002;28;20030;-72
2022/03/28 02:19:58;;;;;;;30.77;17.55;;;;;;;16.36;38.33;102518.13;5035851;28;20438;-82
2022/03/28 02:22:24;;;;;;;31.17;18.55;;;;;;;16.30;38.40;102520.16;5036009;28;20044;-86
2022/03/28 02:24:50;;;;;;;33.10;18.05;;;;;;;16.25;38.31;102517.53;5035779;28;20057;-72
2022/03/28 02:27:15;;;;;;;30.42;19.38;;;;;;;16.27;38.46;102507.00;5035314;28;20057;-87
2022/03/28 02:29:41;;;;;;;23.38;17.88;;;;;;;16.21;38.19;102502.72;5035624;28;20029;-72
2022/03/28 02:32:07;;;;;;;23.00;17.50;;;;;;;16.19;38.51;102498.66;5035883;28;20542;-73
2022/03/28 02:34:33;;;;;;;26.63;16.38;;;;;;;16.18;38.41;102499.78;5035416;28;20437;-87
2022/03/28 02:36:59;;;;;;;25.92;16.60;;;;;;;16.14;38.33;102496.81;5035352;28;20133;-73
2022/03/28 02:39:25;;;;;;;24.67;18.17;;;;;;;16.11;38.48;102496.63;5035565;28;20025;-87
2022/03/28 02:41:51;;;;;;;25.30;18.08;;;;;;;16.07;38.29;102499.97;5035559;28;20074;-72
2022/03/28 02:44:17;;;;;;;25.50;17.17;;;;;;;16.02;38.51;102496.50;5017260;28;20022;-87
2022/03/28 02:46:44;;;;;;;26.95;16.77;;;;;;;16.00;38.60;102487.72;5035315;28;20104;-87
2022/03/28 02:49:09;;;;;;;26.83;17.15;;;;;;;16.00;38.41;102483.03;5017548;28;20439;-72
2022/03/28 02:51:35;;;;;;;30.02;17.08;;;;;;;15.99;38.35;102489.66;5034700;28;20033;-72
2022/03/28 02:54:01;;;;;;;31.67;16.90;;;;;;;15.98;38.47;102487.22;5034527;28;20029;-81
2022/03/28 02:56:27;;;;;;;32.33;17.48;;;;;;;15.94;38.63;102480.66;5034685;28;20021;-87
2022/03/28 02:58:52;;;;;;;49.70;20.38;;;;;;;15.93;38.56;102468.81;5034573;28;20026;-86
2022/03/28 03:01:18;;;;;;;60.33;21.23;;;;;;;15.94;38.53;102473.22;5034549;28;20029;-74
2022/03/28 03:03:44;;;;;;;48.63;20.15;;;;;;;15.94;38.49;102475.97;5034937;28;20024;-87
2022/03/28 03:06:09;;;;;;;59.65;19.48;;;;;;;15.90;38.67;102474.97;5034926;28;20045;-72
2022/03/28 03:08:35;;;;;;;44.63;19.77;;;;;;;15.88;38.58;102479.16;5015972;28;20048;-72
2022/03/28 03:11:00;;;;;;;33.35;19.73;;;;;;;15.92;38.46;102477.41;5034274;28;20037;-72
2022/03/28 03:13:26;;;;;;;34.10;19.15;;;;;;;15.88;38.22;102477.22;5034269;28;20029;-72
2022/03/28 03:15:51;;;;;;;35.67;18.98;;;;;;;15.85;38.70;102461.28;5032581;28;20025;-72
2022/03/28 03:18:17;;;;;;;39.40;20.17;;;;;;;15.74;38.90;102470.91;5032993;28;20502;-73
2022/03/28 03:20:42;;;;;;;32.08;18.65;;;;;;;15.78;38.64;102467.19;5034229;28;20072;-87
2022/03/28 03:23:08;;;;;;;32.10;19.58;;;;;;;15.74;38.57;102465.38;5034221;28;20025;-72
2022/03/28 03:25:34;;;;;;;40.15;19.52;;;;;;;15.72;38.70;102464.88;5033767;28;20476;-87
2022/03/28 03:27:59;;;;;;;34.83;18.60;;;;;;;15.74;38.63;102451.59;5015958;28;20465;-72
2022/03/28 03:30:25;;;;;;;29.77;18.45;;;;;;;15.72;38.65;102446.41;5016230;28;20025;-87
2022/03/28 03:32:51;;;;;;;30.25;18.90;;;;;;;15.72;38.68;102443.66;5034251;28;20036;-72
2022/03/28 03:35:16;;;;;;;29.48;18.58;;;;;;;15.75;38.31;102445.78;5032359;28;20041;-72
2022/03/28 03:37:42;;;;;;;49.40;18.55;;;;;;;15.68;38.50;102437.09;5033768;28;20091;-72
2022/03/28 03:40:09;;;;;;;39.83;17.80;;;;;;;15.64;38.54;102438.00;5033961;28;20044;-72
2022/03/28 03:42:34;;;;;;;45.38;18.63;;;;;;;15.59;38.66;102436.16;5034133;28;20053;-72
2022/03/28 03:45:01;;;;;;;36.78;16.58;;;;;;;15.59;38.67;102429.84;5033658;28;20072;-72
2022/03/28 03:47:27;;;;;;;24.10;17.00;;;;;;;15.55;38.81;102429.63;5016182;28;20044;-87
2022/03/28 03:49:53;;;;;;;22.63;16.42;;;;;;;15.51;38.65;102428.59;5033629;28;20033;-87
2022/03/28 03:52:18;;;;;;;23.52;16.55;;;;;;;15.51;38.40;102426.66;5015718;28;20486;-84
2022/03/28 03:54:44;;;;;;;25.00;15.73;;;;;;;15.47;38.82;102425.63;5016018;28;20029;-72
2022/03/28 03:57:09;;;;;;;26.88;16.00;;;;;;;15.49;38.65;102420.66;5033386;28;20520;-72
2022/03/28 03:59:35;;;;;;;23.88;15.65;;;;;;;15.49;38.57;102423.41;5033900;28;20039;-72
2022/03/28 04:02:01;;;;;;;19.77;16.02;;;;;;;15.46;38.79;102418.50;5015791;28;20075;-72
2022/03/28 04:04:27;;;;;;;21.83;15.52;;;;;;;15.39;38.54;102407.06;5033633;28;20057;-73
2022/03/28 04:06:52;;;;;;;28.98;17.15;;;;;;;15.34;39.04;102415.44;5033233;28;20037;-72
2022/03/28 04:09:18;;;;;;;22.10;17.55;;;;;;;15.33;38.70;102411.03;5015616;28;20381;-72
2022/03/28 04:11:43;;;;;;;21.77;15.93;;;;;;;15.29;38.75;102410.03;5014894;28;20044;-72
2022/03/28 04:14:10;;;;;;;24.50;16.20;;;;;;;15.33;38.71;102407.47;5033438;28;20083;-73
2022/03/28 04:16:35;;;;;;;33.35;17.95;;;;;;;15.23;38.69;102402.97;5015608;28;20017;-72
2022/03/28 04:19:01;;;;;;;30.98;17.65;;;;;;;15.19;38.77;102404.72;5032505;28;20025;-72
2022/03/28 04:21:27;;;;;;;50.45;18.02;;;;;;;15.12;38.71;102405.09;5033177;28;20097;-87
2022/03/28 04:23:53;;;;;;;33.35;18.00;;;;;;;15.07;38.98;102399.69;5033053;28;20384;-73
2022/03/28 04:26:18;;;;;;;23.70;17.38;;;;;;;15.02;38.88;102409.97;5033176;28;20032;-74
2022/03/28 04:28:44;;;;;;;30.58;16.27;;;;;;;14.91;39.09;102406.59;5015637;28;20036;-88
2022/03/28 04:31:10;;;;;;;32.28;17.45;;;;;;;14.93;38.91;102394.16;5015152;28;20060;-72
2022/03/28 04:33:36;;;;;;;25.65;16.02;;;;;;;14.89;38.86;102401.38;5033206;28;20083;-72
2022/03/28 04:36:02;;;;;;;22.67;16.48;;;;;;;14.81;38.99;102393.81;5032847;28;20116;-72
2022/03/28 04:38:28;;;;;;;20.73;16.02;;;;;;;14.81;38.84;102393.81;5032711;28;20452;-72
2022/03/28 04:40:53;;;;;;;22.58;15.38;;;;;;;14.74;38.87;102398.91;5032852;28;20032;-72
2022/03/28 04:43:20;;;;;;;18.52;15.30;;;;;;;14.74;38.75;102393.41;5032678;28;20048;-72
2022/03/28 04:45:46;;;;;;;19.83;16.83;;;;;;;14.57;39.04;102395.84;5032729;28;20049;-72
2022/03/28 04:48:12;;;;;;;22.77;16.90;;;;;;;14.52;39.07;102387.72;5032711;28;20091;-88
2022/03/28 04:50:38;;;;;;;19.60;15.98;;;;;;;14.47;39.24;102388.59;5032450;28;20030;-72
2022/03/28 04:53:04;;;;;;;21.38;15.50;;;;;;;14.48;39.09;102381.16;5032833;28;20044;-72
2022/03/28 04:55:29;;;;;;;18.77;15.18;;;;;;;14.45;39.07;102379.81;5032546;28;20029;-72
2022/03/28 04:57:56;;;;;;;22.17;15.02;;;;;;;14.40;39.24;102377.94;5033058;28;20026;-73
2022/03/28 05:00:21;;;;;;;18.08;15.13;;;;;;;14.51;39.04;102375.03;5032470;28;20025;-72
2022/03/28 05:02:47;;;;;;;24.33;16.73;;;;;;;14.49;38.82;102375.34;5032738;28;20550;-72
2022/03/28 05:05:12;;;;;;;19.88;16.35;;;;;;;14.37;38.80;102361.22;5032399;28;20064;-72
2022/03/28 05:07:38;;;;;;;21.23;16.13;;;;;;;14.37;38.78;102367.53;5032550;28;20040;-74
2022/03/28 05:10:05;;;;;;;22.75;16.13;;;;;;;14.15;39.28;102368.16;5032162;28;20017;-80
2022/03/28 05:12:31;;;;;;;21.38;16.92;;;;;;;14.25;39.03;102369.09;5032117;28;20025;-72
2022/03/28 05:14:57;;;;;;;22.25;15.70;;;;;;;14.15;39.35;102364.59;5032455;28;20021;-84
2022/03/28 05:17:30;;;;;;;24.50;16.95;;;;;;;14.01;39.45;102360.94;5032220;28;20029;-72
2022/03/28 05:19:59;;;;;;;22.42;17.42;;;;;;;14.18;39.15;102363.16;5014830;28;20045;-72
2022/03/28 05:22:24;;;;;;;27.73;17.25;;;;;;;14.21;39.14;102362.56;5014761;28;20033;-82
2022/03/28 05:24:51;;;;;;;20.90;16.52;;;;;;;14.04;39.29;102357.59;5032360;28;20513;-82
2022/03/28 05:27:18;;;;;;;25.67;17.40;;;;;;;14.01;39.38;102356.25;5031962;28;20708;-72
2022/03/28 05:29:43;;;;;;;20.75;15.80;;;;;;;14.01;39.24;102356.25;5032191;28;20056;-82
2022/03/28 05:32:10;;;;;;;21.55;16.00;;;;;;;13.83;39.63;102357.91;5031980;28;20083;-72
2022/03/28 05:34:36;;;;;;;20.55;15.55;;;;;;;13.91;39.35;102352.84;5032319;28;20026;-85
2022/03/28 05:37:05;;;;;;;19.73;15.85;;;;;;;13.77;39.37;102353.59;5031987;28;20554;-83
2022/03/28 05:39:33;;;;;;;21.65;15.77;;;;;;;13.84;39.15;102354.03;5031905;28;20065;-72
2022/03/28 05:41:59;;;;;;;24.15;15.02;;;;;;;13.69;39.38;102351.50;5032231;28;20026;-72
2022/03/28 05:44:25;;;;;;;20.23;15.50;;;;;;;13.64;39.55;102348.81;5032075;28;20476;-81
2022/03/28 05:46:51;;;;;;;18.92;14.70;;;;;;;13.64;39.56;102346.06;5032599;28;20028;-72
2022/03/28 05:49:19;;;;;;;18.58;15.10;;;;;;;13.51;39.67;102346.75;5014203;28;20387;-71
2022/03/28 05:51:45;;;;;;;23.45;16.48;;;;;;;13.59;39.53;102346.13;5031976;28;20025;-72
2022/03/28 05:54:12;;;;;;;22.42;15.60;;;;;;;13.63;39.38;102349.91;5032051;28;20387;-72
2022/03/28 05:56:37;;;;;;;22.90;15.82;;;;;;;13.50;39.57;102351.44;5014728;28;20120;-88
2022/03/28 05:59:03;;;;;;;18.02;14.43;;;;;;;13.59;39.44;102357.09;5033181;28;20635;-87
2022/03/28 06:01:29;;;;;;;17.73;14.35;;;;;;;13.67;39.34;102352.88;5032515;28;20026;-88
2022/03/28 06:03:55;;;;;;;21.50;15.27;;;;;;;13.61;39.54;102343.91;5032669;28;20052;-74
2022/03/28 06:06:20;;;;;;;26.00;16.58;;;;;;;13.62;39.31;102341.97;5032863;28;20018;-86
2022/03/28 06:08:46;;;;;;;17.65;14.20;;;;;;;13.56;39.39;102344.78;5031850;28;20105;-71
2022/03/28 06:11:12;;;;;;;20.48;15.27;;;;;;;13.54;39.53;102344.25;5031543;28;20022;-87
2022/03/28 06:13:37;;;;;;;24.00;16.13;;;;;;;13.60;39.37;102342.25;5013877;28;20037;-70
2022/03/28 06:16:04;;;;;;;22.65;15.55;;;;;;;13.59;39.33;102335.13;5031500;28;20112;-71
2022/03/28 06:18:30;;;;;;;19.10;15.50;;;;;;;13.64;39.30;102332.31;5031492;28;20028;-71
2022/03/28 06:20:55;;;;;;;19.92;15.75;;;;;;;13.81;39.03;102323.56;5031459;28;20116;-74
2022/03/28 06:23:22;;;;;;;21.38;15.18;;;;;;;13.83;38.95;102330.44;5031349;28;20075;-84
2022/03/28 06:25:47;;;;;;;18.90;14.95;;;;;;;13.86;38.87;102329.00;5031365;28;20124;-71
2022/03/28 06:28:15;;;;;;;19.83;15.50;;;;;;;13.75;39.34;102333.84;5014029;28;20129;-70
2022/03/28 06:30:41;;;;;;;17.67;14.15;;;;;;;13.88;39.10;102329.50;5031336;28;20052;-71
2022/03/28 06:33:06;;;;;;;18.42;15.07;;;;;;;13.88;39.19;102327.59;5031385;28;20104;-71
2022/03/28 06:35:32;;;;;;;19.45;14.75;;;;;;;13.99;38.92;102321.97;5031088;28;20076;-87
2022/03/28 06:37:57;;;;;;;22.92;16.00;;;;;;;14.02;38.95;102324.09;5031396;28;20065;-72
2022/03/28 06:40:24;;;;;;;16.80;13.30;;;;;;;13.95;39.27;102320.91;5031416;28;20034;-71
2022/03/28 06:42:50;;;;;;;19.58;14.73;;;;;;;14.05;39.10;102320.75;5014442;28;20029;-72
2022/03/28 06:45:17;;;;;;;20.63;14.52;;;;;;;14.02;39.39;102315.84;5035489;28;20036;-86
2022/03/28 06:47:43;;;;;;;21.75;15.15;;;;;;;14.01;39.34;102320.53;5034895;28;20480;-85
2022/03/28 06:50:09;;;;;;;21.08;15.00;;;;;;;14.05;39.53;102318.81;5016861;28;20129;-74
2022/03/28 06:52:35;;;;;;;16.90;13.57;;;;;;;14.20;39.48;102323.25;5033110;28;20041;-71
2022/03/28 06:55:01;;;;;;;25.83;14.63;;;;;;;14.24;39.48;102323.50;5034279;28;20037;-70
2022/03/28 06:57:27;;;;;;;18.65;13.65;;;;;;;14.33;39.26;102317.00;5034255;28;20075;-71
2022/03/28 06:59:55;;;;;;;19.73;14.00;;;;;;;14.38;39.54;102318.88;5033091;28;20030;-72
2022/03/28 07:02:21;;;;;;;22.55;14.63;;;;;;;14.47;39.54;102324.53;5034670;28;20033;-87
2022/03/28 07:04:47;;;;;;;20.48;13.50;;;;;;;14.40;39.77;102320.19;5034357;28;20029;-72
2022/03/28 07:07:12;;;;;;;19.23;15.00;;;;;;;14.49;39.59;102325.03;5034277;28;20032;-83
2022/03/28 07:09:38;;;;;;;21.00;13.20;;;;;;;14.45;39.79;102324.78;5034211;28;20033;-76
2022/03/28 07:12:05;;;;;;;20.83;13.48;;;;;;;14.53;39.65;102320.56;5034230;28;20033;-72
2022/03/28 07:14:32;;;;;;;22.42;13.32;;;;;;;14.63;39.71;102323.94;5034095;28;20384;-72
2022/03/28 07:16:59;;;;;;;20.73;14.48;;;;;;;14.66;39.93;102317.03;5034233;28;20025;-73
2022/03/28 07:19:25;;;;;;;24.13;14.07;;;;;;;14.82;39.83;102318.41;5034515;28;20472;-73
2022/03/28 07:21:51;;;;;;;25.50;14.85;;;;;;;14.86;39.80;102322.16;5034296;28;20033;-78
2022/03/28 07:24:17;;;;;;;19.13;12.95;;;;;;;14.89;39.67;102320.75;5034342;28;20049;-88
2022/03/28 07:26:45;;;;;;;22.70;13.98;;;;;;;15.05;39.78;102321.28;5032571;28;20388;-72
2022/03/28 07:29:11;;;;;;;20.67;13.95;;;;;;;15.16;39.75;102317.19;5033627;28;20033;-72
2022/03/28 07:31:39;;;;;;;23.35;13.32;;;;;;;15.25;39.67;102324.44;5033662;28;20107;-80
2022/03/28 07:36:51;;;;;;;20.02;15.18;;;;;;;15.35;40.06;102320.66;5034034;28;20056;-73
2022/03/28 07:39:20;;;;;;;19.83;14.07;;;;;;;15.51;39.89;102310.16;5033721;28;20057;-72
2022/03/28 07:41:47;;;;;;;25.33;16.90;;;;;;;15.61;40.00;102312.69;5033537;28;20031;-72
2022/03/28 07:44:13;;;;;;;26.02;16.23;;;;;;;15.71;40.01;102309.72;5031799;28;20056;-73
2022/03/28 07:46:39;;;;;;;24.42;16.02;;;;;;;15.72;40.01;102308.63;5032317;28;20029;-73
2022/03/28 07:49:05;;;;;;;23.75;16.05;;;;;;;15.78;40.37;102307.34;5032496;28;20368;-71
2022/03/28 07:51:30;;;;;;;24.95;16.23;;;;;;;16.05;39.92;102305.66;5031331;28;20071;-74
2022/03/28 07:53:56;;;;;;;23.48;16.98;;;;;;;16.16;39.76;102304.25;5033314;28;20025;-89
2022/03/28 07:56:22;;;;;;;32.58;18.92;;;;;;;16.22;40.12;102310.47;5034477;28;20021;-74
2022/03/28 07:58:47;;;;;;;23.35;17.55;;;;;;;16.36;40.29;102302.94;5033376;28;20033;-75
2022/03/28 08:01:13;;;;;;;21.45;15.63;;;;;;;16.51;40.26;102307.28;5016101;28;20113;-83
2022/03/28 08:03:39;;;;;;;20.60;15.63;;;;;;;16.63;40.14;102300.06;5034499;28;20017;-90
2022/03/28 08:06:04;;;;;;;22.75;16.73;;;;;;;16.65;40.45;102306.06;5034347;28;20029;-78
2022/03/28 08:08:32;;;;;;;22.05;15.30;;;;;;;16.87;40.10;102305.25;5034636;28;20021;-72
2022/03/28 08:10:59;;;;;;;29.60;17.35;;;;;;;16.92;40.35;102290.47;5034575;28;20065;-86
2022/03/28 08:13:24;;;;;;;24.92;17.77;;;;;;;17.12;40.33;102294.59;5033573;28;20038;-73
2022/03/28 08:15:50;;;;;;;26.58;17.13;;;;;;;17.22;40.28;102282.44;5032376;28;20033;-73
2022/03/28 08:18:16;;;;;;;21.70;16.35;;;;;;;17.09;40.70;102296.06;5033209;28;20118;-71
2022/03/28 08:20:43;;;;;;;31.33;17.38;;;;;;;17.29;40.65;102300.19;5033822;28;20069;-89
2022/03/28 08:23:09;;;;;;;22.50;17.40;;;;;;;17.29;40.84;102288.31;5036354;28;20100;-87
2022/03/28 08:25:35;;;;;;;28.05;16.63;;;;;;;17.52;40.60;102292.59;5032932;28;20098;-73
2022/03/28 08:28:01;;;;;;;24.05;16.50;;;;;;;17.61;40.49;102290.69;5032128;28;20464;-84
2022/03/28 08:30:26;;;;;;;19.50;16.15;;;;;;;17.82;40.45;102296.41;5032725;28;20029;-73
2022/03/28 08:32:52;;;;;;;22.20;16.98;;;;;;;17.90;40.41;102290.06;5032304;28;20086;-73
2022/03/28 08:35:18;;;;;;;26.00;17.83;;;;;;;17.95;40.96;102286.31;5031163;28;20029;-73
2022/03/28 08:37:44;;;;;;;27.20;17.20;;;;;;;18.09;40.86;102292.50;5031498;28;20176;-73
2022/03/28 08:40:09;;;;;;;23.05;16.35;;;;;;;18.19;40.79;102294.94;5031932;28;20060;-74
2022/03/28 08:42:35;;;;;;;38.67;18.27;;;;;;;18.40;40.72;102288.72;5031734;28;20420;-73
2022/03/28 08:45:01;;;;;;;26.02;18.98;;;;;;;18.58;40.71;102282.00;5032427;28;20029;-73
2022/03/28 08:47:27;;;;;;;29.58;18.17;;;;;;;18.76;40.65;102277.25;5032056;28;20039;-73
2022/03/28 08:49:53;;;;;;;26.80;17.25;;;;;;;18.78;40.88;102278.53;5031966;28;20029;-74
2022/03/28 08:52:20;;;;;;;25.52;17.80;;;;;;;18.99;40.82;102286.13;5031437;28;20063;-73
2022/03/28 08:54:46;;;;;;;25.33;17.70;;;;;;;19.16;40.49;102280.50;5030755;28;20826;-73
2022/03/28 08:57:13;;;;;;;21.02;16.08;;;;;;;19.30;40.74;102281.06;5029886;28;20037;-73
2022/03/28 08:59:39;;;;;;;34.25;19.52;;;;;;;19.35;40.84;102289.19;5031613;28;20041;-73
2022/03/28 09:02:05;;;;;;;41.28;19.92;;;;;;;19.53;40.86;102276.03;5031812;28;20040;-73
2022/03/28 09:04:31;;;;;;;23.30;17.08;;;;;;;19.61;41.10;102271.59;5031933;28;20072;-73
2022/03/28 09:06:57;;;;;;;30.15;18.70;;;;;;;19.72;41.16;102272.81;5031422;28;20034;-73
2022/03/28 09:09:27;;;;;;;30.00;18.50;;;;;;;19.82;41.19;102275.19;5031802;28;20034;-73
2022/03/28 09:12:07;;;;;;;37.75;18.63;;;;;;;19.94;41.33;102271.66;5031419;28;20120;-73
2022/03/28 09:14:34;;;;;;;31.42;19.58;;;;;;;20.10;41.12;102267.13;5031946;28;20087;-73
2022/03/28 09:17:04;;;;;;;23.40;17.80;;;;;;;20.21;40.93;102270.25;5031397;28;20083;-73
2022/03/28 09:19:59;;;;;;;24.92;18.17;;;;;;;20.44;40.71;102270.72;5032308;28;20036;-73
2022/03/28 09:22:29;;;;;;;34.05;20.75;;;;;;;20.37;40.98;102271.25;5031682;28;20037;-71
2022/03/28 09:25:02;;;;;;;25.63;19.88;;;;;;;20.43;41.32;102261.53;5031696;28;20040;-72
2022/03/28 09:27:31;;;;;;;27.88;17.58;;;;;;;20.61;40.95;102264.94;5014173;28;20029;-72
2022/03/28 09:30:08;;;;;;;23.33;18.70;;;;;;;20.79;40.88;102262.81;5031438;28;20060;-71
2022/03/28 09:32:39;;;;;;;27.27;19.60;;;;;;;20.85;40.99;102258.63;5031423;28;20091;-72
2022/03/28 09:35:08;;;;;;;26.30;18.33;;;;;;;20.90;40.72;102260.38;5031647;28;20060;-71
2022/03/28 09:37:51;;;;;;;24.17;17.30;;;;;;;20.90;40.63;102261.16;5031493;28;20048;-72
2022/03/28 09:40:42;;;;;;;34.80;20.15;;;;;;;21.03;40.43;102260.03;5031744;28;20395;-72
2022/03/28 09:43:17;;;;;;;21.95;17.17;;;;;;;21.16;40.20;102260.00;5031858;28;20049;-71
2022/03/28 09:45:48;;;;;;;26.33;18.05;;;;;;;21.20;40.26;102258.97;5031869;28;20430;-71
2022/03/28 09:48:15;;;;;;;25.35;17.85;;;;;;;21.21;39.78;102249.47;5031775;28;20163;-73
2022/03/28 09:50:47;;;;;;;26.95;17.73;;;;;;;21.05;39.60;102246.59;5031359;28;20021;-73
2022/03/28 09:53:27;;;;;;;20.13;15.20;;;;;;;21.23;39.36;102251.88;5031742;28;20104;-73
2022/03/28 09:55:54;;;;;;;31.83;17.80;;;;;;;21.41;39.04;102246.94;5031617;28;20029;-73
2022/03/28 09:58:48;;;;;;;19.95;15.60;;;;;;;21.41;39.11;102246.94;5031978;28;20022;-73
2022/03/28 10:01:19;;;;;;;24.70;16.00;;;;;;;21.33;39.27;102234.78;5031632;28;20025;-73
2022/03/28 10:03:47;;;;;;;34.63;17.60;;;;;;;21.55;38.61;102231.50;5031597;28;20076;-73
2022/03/28 10:06:13;;;;;;;24.45;16.67;;;;;;;21.63;38.51;102242.81;5031614;28;20030;-73
2022/03/28 10:08:39;;;;;;;20.25;14.20;;;;;;;21.70;38.39;102248.59;5031568;28;20025;-73
2022/03/28 10:11:06;;;;;;;24.35;14.68;;;;;;;21.78;37.94;102242.06;5031455;28;20032;-73
2022/03/28 10:13:32;;;;;;;25.48;16.17;;;;;;;21.95;37.84;102236.22;5031472;28;20071;-73
2022/03/28 10:16:00;;;;;;;25.33;15.63;;;;;;;21.68;37.90;102240.59;5031457;28;20420;-73
2022/03/28 10:18:30;;;;;;;22.20;15.23;;;;;;;21.43;38.05;102234.28;5033654;28;20159;-73
2022/03/28 10:20:59;;;;;;;19.95;14.88;;;;;;;21.74;37.43;102227.25;5035228;28;20071;-73
2022/03/28 10:23:48;;;;;;;20.35;15.75;;;;;;;21.73;37.07;102240.34;5035324;28;20042;-73
2022/03/28 10:26:17;;;;;;;22.90;15.55;;;;;;;21.63;37.25;102234.47;5034940;28;20144;-74
2022/03/28 10:28:59;;;;;;;20.35;15.18;;;;;;;21.93;36.84;102235.75;5035028;28;20033;-76
2022/03/28 10:31:25;;;;;;;31.38;16.48;;;;;;;22.01;36.73;102226.44;5035162;28;20479;-73
2022/03/28 10:33:53;;;;;;;20.23;15.35;;;;;;;22.14;36.83;102228.03;5034868;28;20025;-74
2022/03/28 10:36:30;;;;;;;18.50;14.57;;;;;;;22.13;36.76;102229.19;5034630;28;20038;-74
2022/03/28 10:39:41;;;;;;;18.58;13.13;;;;;;;21.80;36.86;102223.06;5035127;28;20028;-73
2022/03/28 10:42:16;;;;;;;17.63;13.10;;;;;;;22.07;36.74;102221.44;5031624;28;20451;-74
2022/03/28 10:44:44;;;;;;;17.63;12.65;;;;;;;22.27;36.89;102219.59;5035128;28;20036;-73
2022/03/28 10:47:09;;;;;;;22.52;14.10;;;;;;;22.61;36.43;102212.53;5034604;28;20028;-73
2022/03/28 10:49:35;;;;;;;18.38;12.75;;;;;;;22.67;36.50;102208.28;5034955;28;20030;-72
2022/03/28 10:52:02;;;;;;;14.40;11.02;;;;;;;22.69;36.25;102204.00;5034329;28;20037;-72
2022/03/28 10:54:37;;;;;;;16.60;11.25;;;;;;;22.52;36.39;102207.16;5034613;28;20036;-74
2022/03/28 10:57:04;;;;;;;17.05;11.23;;;;;;;22.63;36.15;102205.44;5034576;28;20026;-72
2022/03/28 10:59:31;;;;;;;13.00;10.60;;;;;;;22.45;36.37;102209.75;5034535;28;20083;-72
2022/03/28 11:01:57;;;;;;;29.70;13.90;;;;;;;22.60;36.36;102202.56;5034647;28;20022;-72
2022/03/28 11:04:23;;;;;;;16.98;12.07;;;;;;;22.74;36.08;102191.75;5034331;28;20025;-72
2022/03/28 11:07:07;;;;;;;19.45;12.50;;;;;;;22.81;35.63;102191.91;5034363;28;20075;-72
2022/03/28 11:09:54;;;;;;;17.58;13.93;;;;;;;22.68;35.73;102194.03;5034404;28;20021;-73
2022/03/28 11:12:27;;;;;;;16.83;11.43;;;;;;;22.79;35.71;102188.69;5034289;28;20025;-73